Richvale, Pennsylvania
Current Conditions -  °F | °C
As of 4:53 PM on Thursday 27 Nov 2014 (Local Time) from KAOO Reporting Station
Overcast Overcast  
Wind Chill: 26°   Ceiling: 7000
Heat Index: 32°   Visibility: 10mi
Dew Point: 27°   Wind: 6mph
Humidity: 82%   Direction: 300°WNW
Pressure: 30.05"   Gusts: NA
Location:  40.2561°N, 77.7747°W
Report Text: KAOO 272153Z AUTO 30005KT 10SM OVC070 00/M03 A3005 RMK AO2 SLP191 T00001028
Loading
Personal Weather Stations






























Interactive Weather Map New forecast layout! Learn more

10-Day Weather Forecast

Advertisements
Track Severe Weather on mobile